メインページ
METAR-TAF:

METAR-TAF

空港 :

San José del Cabo, メキシコ

緯度: 23-09N, 経度: 109-42W, 海抜: 109m

現時点の気象観測

当レポートは1時間25分前の18:40(UTC)に作成
西/南西の風 3kt
気温 28°C
湿度 42%
気圧 1012 hPa
視程: 19.3km
高度5000ftの雲は散在している

METAR: MMSD 151840Z 24003KT 12SM SCT050 28/14 A2988 RMK 8/100

時間: 14:05 (20:05 UTC)

予報

当レポートは3時間8分前の16:57(UTC)に作成
予報は15日の 18時(UTC)から 16日の 18時(UTC)まで有効
南東の風 15kt
視程: 10km
高度4000ftの雲は散在している
15日の 22時(UTC)から 16日の 02時(UTC)まで一時的に
高度4000ftの千切れ雲あり
近辺で
16日の 0300時(UTC)から
の風 kt
視程: 10km
高度8000ftの雲は散在している
高度25000ftの千切れ雲あり

TAF: MMSD 151657Z 1518/1618 14015KT P6SM SCT040 TEMPO 1522/1602 BKN040 VC CB FM160300 00000KT P6SM SCT080 BKN250

4,000以上の空港の気象観測と天気予報(METAR報とTAF報)

利用可能な観測所は地図上に黄色い丸と赤い丸で示す。

丸の上にカーソルを重ねると観測所名を参照できる。

次にクリックすると気象観測と天気予報を参照できる。

マップの切り替え:黒色「×」印の緑ボタンをクリックして拡大、「-」印の緑ボタンをクリックして縮小、緑色の三角印をクリックして隣りの地図に切り替え


METAR-TAF: